Time;durP1;ratioP1;P1;durP2;ratioP2;P2;SDS_P1;SDS_P2;PMS_P1;PMS_P2;Temp;Humidity;BMP_temperature;BMP_pressure;BME280_temperature;BME280_humidity;BME280_pressure;Samples;Min_cycle;Max_cycle;Signal;HPM_P1;HPM_P2
2020/12/01 00:00:32;;;;;;;;;;;;;;;4.28;100.00;99855.09;5016681;28;19944;-81
2020/12/01 00:02:58;;;;;;;;;;;;;;;4.26;100.00;99851.06;5017155;28;20004;-81
2020/12/01 00:05:25;;;;;;;;;;;;;;;4.32;100.00;99869.78;5065976;28;20376;-81
2020/12/01 00:07:52;;;;;;;;;;;;;;;4.35;100.00;99863.53;5033065;28;19983;-81
2020/12/01 00:10:19;;;;;;;;;;;;;;;4.32;100.00;99852.38;5083906;28;19921;-81
2020/12/01 00:12:46;;;;;;;;;;;;;;;4.28;100.00;99857.06;5036002;28;20364;-81
2020/12/01 00:15:14;;;;;;;;;;;;;;;4.32;100.00;99852.38;5054890;28;19925;-81
2020/12/01 00:17:40;;;;;;;;;;;;;;;4.38;100.00;99846.22;5053296;28;19920;-81
2020/12/01 00:20:08;;;;;;;;;;;;;;;4.29;100.00;99842.03;5035932;28;20296;-81
2020/12/01 00:22:49;;;;;;;;;;;;;;;4.25;100.00;99842.00;5052906;28;20007;-80
2020/12/01 00:25:16;;;;;;;;;;;;;;;4.27;100.00;99847.94;5053358;28;19924;-80
2020/12/01 00:27:43;;;;;;;;;;;;;;;4.24;100.00;99840.38;5086011;28;19921;-81
2020/12/01 00:30:12;;;;;;;;;;;;;;;4.14;100.00;99840.94;5053311;28;19925;-79
2020/12/01 00:32:38;;;;;;;;;;;;;;;4.11;100.00;99844.44;5069245;28;19968;-80
2020/12/01 00:35:06;;;;;;;;;;;;;;;4.24;100.00;99845.91;5053160;28;19921;-80
2020/12/01 00:37:33;;;;;;;;;;;;;;;4.16;100.00;99849.69;5053183;28;19932;-80
2020/12/01 00:40:00;;;;;;;;;;;;;;;4.12;100.00;99859.88;5036545;28;20027;-79
2020/12/01 00:42:26;;;;;;;;;;;;;;;4.28;100.00;99851.53;5053798;28;19971;-80
2020/12/01 00:44:53;;;;;;;;;;;;;;;4.20;100.00;99861.63;5052551;28;19931;-80
2020/12/01 00:47:19;;;;;;;;;;;;;;;4.11;100.00;99863.00;5052759;28;19920;-80
2020/12/01 00:49:46;;;;;;;;;;;;;;;4.17;100.00;99865.13;5086368;28;19928;-80
2020/12/01 00:52:13;;;;;;;;;;;;;;;4.16;100.00;99869.06;5019932;28;19975;-81
2020/12/01 00:54:40;;;;;;;;;;;;;;;4.15;100.00;99867.44;5052312;28;19968;-80
2020/12/01 00:57:06;;;;;;;;;;;;;;;4.08;100.00;99867.28;5036224;28;19920;-80
2020/12/01 00:59:33;;;;;;;;;;;;;;;3.99;100.00;99872.22;5036110;28;19931;-80
2020/12/01 01:02:00;;;;;;;;;;;;;;;4.09;100.00;99866.13;5052155;28;20020;-80
2020/12/01 01:04:27;;;;;;;;;;;;;;;4.08;100.00;99869.25;5019790;28;20002;-80
2020/12/01 01:06:54;;;;;;;;;;;;;;;3.98;100.00;99875.34;5035373;28;19920;-80
2020/12/01 01:09:20;;;;;;;;;;;;;;;3.82;100.00;99877.34;5068749;28;20000;-80
2020/12/01 01:11:46;;;;;;;;;;;;;;;4.04;100.00;99885.78;5052555;28;19921;-80
2020/12/01 01:14:13;;;;;;;;;;;;;;;4.12;100.00;99879.22;5052375;28;19925;-80
2020/12/01 01:16:43;;;;;;;;;;;;;;;3.84;100.00;99875.81;5055386;28;19921;-80
2020/12/01 01:19:11;;;;;;;;;;;;;;;3.64;100.00;99876.91;5072481;28;19925;-81
2020/12/01 01:21:38;;;;;;;;;;;;;;;3.72;100.00;99890.56;5056498;28;19967;-80
2020/12/01 01:24:05;;;;;;;;;;;;;;;3.65;100.00;99898.66;5056971;28;19982;-80
2020/12/01 01:26:31;;;;;;;;;;;;;;;3.60;100.00;99898.94;5057363;28;19974;-80
2020/12/01 01:28:58;;;;;;;;;;;;;;;3.72;100.00;99901.63;5056796;28;19924;-80
2020/12/01 01:31:24;;;;;;;;;;;;;;;4.00;100.00;99909.75;5055801;28;19920;-80
2020/12/01 01:33:50;;;;;;;;;;;;;;;4.05;100.00;99906.72;5056672;28;19920;-81
2020/12/01 01:36:17;;;;;;;;;;;;;;;4.07;100.00;99909.94;5057129;28;19920;-80
2020/12/01 01:38:43;;;;;;;;;;;;;;;4.04;100.00;99913.44;5039086;28;19924;-80
2020/12/01 01:41:10;;;;;;;;;;;;;;;4.11;100.00;99905.28;5055471;28;19921;-80
2020/12/01 01:43:36;;;;;;;;;;;;;;;4.09;100.00;99912.34;5057048;28;19920;-80
2020/12/01 01:46:23;;;;;;;;;;;;;;;4.00;100.00;99917.28;5055407;28;19939;-80
2020/12/01 01:48:50;;;;;;;;;;;;;;;3.98;100.00;99925.94;5056346;28;20405;-80
2020/12/01 01:51:19;;;;;;;;;;;;;;;3.97;100.00;99935.38;5055318;28;19920;-80
2020/12/01 01:53:47;;;;;;;;;;;;;;;4.08;100.00;99932.84;5056752;28;20019;-80
2020/12/01 01:56:19;;;;;;;;;;;;;;;4.10;100.00;99928.59;5022483;28;20017;-80
2020/12/01 01:58:46;;;;;;;;;;;;;;;4.10;100.00;99934.13;5055121;28;19944;-80
2020/12/01 02:01:14;;;;;;;;;;;;;;;4.00;100.00;99922.81;5056360;28;19967;-80
2020/12/01 02:03:43;;;;;;;;;;;;;;;3.89;100.00;99919.78;5054823;28;20386;-80
2020/12/01 02:06:18;;;;;;;;;;;;;;;4.02;100.00;99921.28;5038686;28;20379;-80
2020/12/01 02:08:47;;;;;;;;;;;;;;;3.93;100.00;99920.66;5091143;28;19956;-80
2020/12/01 02:11:14;;;;;;;;;;;;;;;3.92;100.00;99921.84;5058366;28;19924;-79
2020/12/01 02:13:53;;;;;;;;;;;;;;;3.98;100.00;99930.66;5058301;28;19921;-79
2020/12/01 02:16:19;;;;;;;;;;;;;;;4.05;100.00;99941.88;5056403;28;19974;-79
2020/12/01 02:18:46;;;;;;;;;;;;;;;4.12;100.00;99937.31;5041643;28;20079;-80
2020/12/01 02:21:27;;;;;;;;;;;;;;;4.19;100.00;99943.03;5091611;28;19924;-79
2020/12/01 02:23:54;;;;;;;;;;;;;;;4.14;100.00;99940.53;5076229;28;19931;-80
2020/12/01 02:26:20;;;;;;;;;;;;;;;4.05;100.00;99948.22;5041379;28;19920;-80
2020/12/01 02:28:47;;;;;;;;;;;;;;;4.01;100.00;99946.53;5057609;28;20370;-79
2020/12/01 02:31:13;;;;;;;;;;;;;;;4.13;100.00;99961.06;5074276;28;19925;-80
2020/12/01 02:33:40;;;;;;;;;;;;;;;4.03;100.00;99961.59;5074209;28;20280;-80
2020/12/01 02:36:06;;;;;;;;;;;;;;;4.00;100.00;99961.53;5056230;28;19943;-79
2020/12/01 02:38:33;;;;;;;;;;;;;;;3.97;100.00;99960.25;5075573;28;19920;-80
2020/12/01 02:40:59;;;;;;;;;;;;;;;3.93;100.00;99953.84;5057950;28;19947;-80
2020/12/01 02:43:26;;;;;;;;;;;;;;;3.82;100.00;99946.47;5040906;28;19983;-80
2020/12/01 02:45:52;;;;;;;;;;;;;;;3.92;100.00;99949.50;5057726;28;19973;-80
2020/12/01 02:48:18;;;;;;;;;;;;;;;3.95;100.00;99957.06;5075246;28;19927;-79
2020/12/01 02:50:45;;;;;;;;;;;;;;;3.94;100.00;99958.22;5090831;28;19920;-80
2020/12/01 02:53:12;;;;;;;;;;;;;;;3.93;100.00;99956.63;5057714;28;19920;-79
2020/12/01 02:55:39;;;;;;;;;;;;;;;3.99;100.00;99957.13;5075300;28;20007;-80
2020/12/01 02:58:06;;;;;;;;;;;;;;;3.98;100.00;99959.13;5075212;28;19960;-79
2020/12/01 03:00:33;;;;;;;;;;;;;;;4.02;100.00;99954.47;5074889;28;19925;-80
2020/12/01 03:03:00;;;;;;;;;;;;;;;3.91;100.00;99956.16;5073574;28;19924;-80
2020/12/01 03:05:27;;;;;;;;;;;;;;;3.91;100.00;99958.94;5075081;28;20289;-79
2020/12/01 03:07:53;;;;;;;;;;;;;;;3.89;100.00;99960.47;5075184;28;19928;-80
2020/12/01 03:10:20;;;;;;;;;;;;;;;3.88;100.00;99973.47;5056863;28;20021;-80
2020/12/01 03:12:46;;;;;;;;;;;;;;;3.87;100.00;99963.59;5057085;28;20007;-79
2020/12/01 03:15:14;;;;;;;;;;;;;;;3.96;100.00;99966.16;5074476;28;20117;-80
2020/12/01 03:17:41;;;;;;;;;;;;;;;3.95;100.00;99959.84;5074746;28;19998;-80
2020/12/01 03:20:08;;;;;;;;;;;;;;;3.96;100.00;99974.44;5074791;28;19920;-79
2020/12/01 03:22:34;;;;;;;;;;;;;;;3.83;100.00;99956.34;5090246;28;19920;-80
2020/12/01 03:25:01;;;;;;;;;;;;;;;3.83;100.00;99961.88;5056857;28;19982;-79
2020/12/01 03:27:27;;;;;;;;;;;;;;;3.84;100.00;99958.75;5056775;28;20364;-80
2020/12/01 03:29:54;;;;;;;;;;;;;;;3.90;100.00;99967.59;5090084;28;19945;-80
2020/12/01 03:32:23;;;;;;;;;;;;;;;3.88;100.00;99967.16;5056732;28;20269;-79
2020/12/01 03:34:50;;;;;;;;;;;;;;;3.92;100.00;99971.63;5056880;28;19924;-79
2020/12/01 03:37:17;;;;;;;;;;;;;;;3.94;100.00;99985.09;5074606;28;19970;-79
2020/12/01 03:39:43;;;;;;;;;;;;;;;3.95;100.00;99965.38;5055902;28;19974;-79
2020/12/01 03:42:10;;;;;;;;;;;;;;;3.89;100.00;99966.78;5089896;28;19924;-79
2020/12/01 03:44:36;;;;;;;;;;;;;;;3.87;100.00;99974.63;5056453;28;19983;-80
2020/12/01 03:47:03;;;;;;;;;;;;;;;3.89;100.00;99972.31;5024152;28;19924;-79
2020/12/01 03:49:30;;;;;;;;;;;;;;;3.86;100.00;99981.34;5056558;28;19920;-80
2020/12/01 03:51:56;;;;;;;;;;;;;;;3.91;100.00;99969.22;5040095;28;19964;-80
2020/12/01 03:54:23;;;;;;;;;;;;;;;3.81;100.00;99965.00;5056401;28;19920;-79
2020/12/01 03:56:49;;;;;;;;;;;;;;;3.84;100.00;99966.25;5074442;28;19920;-79
2020/12/01 03:59:16;;;;;;;;;;;;;;;3.91;100.00;99972.75;5056262;28;19978;-80
2020/12/01 04:01:42;;;;;;;;;;;;;;;3.92;100.00;99982.69;5056380;28;19920;-79
2020/12/01 04:04:09;;;;;;;;;;;;;;;3.97;100.00;99974.09;5089905;28;19960;-79
2020/12/01 04:06:35;;;;;;;;;;;;;;;4.04;100.00;99973.47;5089798;28;19966;-85
2020/12/01 04:09:03;;;;;;;;;;;;;;;4.07;100.00;99990.16;5056295;28;19920;-79
2020/12/01 04:11:30;;;;;;;;;;;;;;;3.98;100.00;99978.47;5089683;28;19965;-79
2020/12/01 04:13:57;;;;;;;;;;;;;;;4.00;100.00;99973.38;5056231;28;19920;-79
2020/12/01 04:16:23;;;;;;;;;;;;;;;3.98;100.00;99964.66;5056455;28;19998;-79
2020/12/01 04:18:49;;;;;;;;;;;;;;;3.94;100.00;99980.34;5056072;28;19974;-79
2020/12/01 04:21:16;;;;;;;;;;;;;;;3.96;100.00;99978.03;5073896;28;19927;-79
2020/12/01 04:23:43;;;;;;;;;;;;;;;3.88;100.00;99976.22;5073853;28;20327;-79
2020/12/01 04:26:10;;;;;;;;;;;;;;;3.90;100.00;99973.94;5055866;28;19925;-79
2020/12/01 04:28:36;;;;;;;;;;;;;;;3.93;100.00;99984.28;5055925;28;19943;-79
2020/12/01 04:31:03;;;;;;;;;;;;;;;3.93;100.00;99981.50;5056341;28;19959;-79
2020/12/01 04:33:29;;;;;;;;;;;;;;;3.89;100.00;99985.34;5073790;28;20275;-79
2020/12/01 04:35:56;;;;;;;;;;;;;;;3.85;100.00;99984.47;5073873;28;19986;-79
2020/12/01 04:38:23;;;;;;;;;;;;;;;3.83;100.00;99993.13;5055885;28;20399;-79
2020/12/01 04:40:49;;;;;;;;;;;;;;;3.76;100.00;99994.91;5055788;28;19966;-79
2020/12/01 04:43:25;;;;;;;;;;;;;;;3.73;100.00;100001.91;5073707;28;19920;-79
2020/12/01 04:45:52;;;;;;;;;;;;;;;3.75;100.00;99999.59;5073739;28;20283;-79
2020/12/01 04:48:28;;;;;;;;;;;;;;;3.71;100.00;99998.72;5074039;28;19925;-79
2020/12/01 04:50:58;;;;;;;;;;;;;;;3.70;100.00;99997.09;5075332;28;20361;-79
2020/12/01 04:53:25;;;;;;;;;;;;;;;3.69;100.00;100001.03;5060122;28;20314;-79
2020/12/01 04:56:11;;;;;;;;;;;;;;;3.66;100.00;100010.03;5059674;28;19959;-80
2020/12/01 04:58:53;;;;;;;;;;;;;;;3.62;100.00;100006.34;5077228;28;19921;-79
2020/12/01 05:01:29;;;;;;;;;;;;;;;3.59;100.00;100012.59;5077324;28;19928;-79
2020/12/01 05:03:55;;;;;;;;;;;;;;;3.52;100.00;100013.22;5059582;28;19920;-79
2020/12/01 05:06:41;;;;;;;;;;;;;;;3.54;100.00;100021.16;5077459;28;19927;-79
2020/12/01 05:09:17;;;;;;;;;;;;;;;3.47;100.00;100009.91;5089218;28;20426;-79
2020/12/01 05:11:49;;;;;;;;;;;;;;;3.46;100.00;100014.66;5055957;28;20272;-79
2020/12/01 05:14:19;;;;;;;;;;;;;;;3.51;100.00;100022.66;5057390;28;20288;-79
2020/12/01 05:16:50;;;;;;;;;;;;;;;3.43;100.00;100020.06;5039732;28;19921;-79
2020/12/01 05:19:33;;;;;;;;;;;;;;;3.44;100.00;100030.75;5055938;28;19927;-79
2020/12/01 05:22:00;;;;;;;;;;;;;;;3.35;100.00;100021.81;5056039;28;19928;-79
2020/12/01 05:24:40;;;;;;;;;;;;;;;3.24;100.00;100023.47;5039337;28;19921;-79
2020/12/01 05:27:17;;;;;;;;;;;;;;;3.26;100.00;100039.69;5056876;28;20360;-79
2020/12/01 05:29:44;;;;;;;;;;;;;;;3.33;100.00;100040.72;5055741;28;20303;-79
2020/12/01 05:32:10;;;;;;;;;;;;;;;3.34;100.00;100038.75;5057044;28;20307;-79
2020/12/01 05:34:37;;;;;;;;;;;;;;;3.27;100.00;100038.56;5055756;28;20384;-79
2020/12/01 05:37:05;;;;;;;;;;;;;;;3.24;100.00;100044.78;5056956;28;20394;-79
2020/12/01 05:39:33;;;;;;;;;;;;;;;3.21;100.00;100048.25;5056803;28;20459;-79
2020/12/01 05:42:01;;;;;;;;;;;;;;;3.20;100.00;100049.41;5056998;28;19920;-79
2020/12/01 05:44:30;;;;;;;;;;;;;;;3.22;100.00;100058.16;5055510;28;19928;-79
2020/12/01 05:47:05;;;;;;;;;;;;;;;3.17;100.00;100055.63;5088963;28;20009;-79
2020/12/01 05:49:35;;;;;;;;;;;;;;;3.20;100.00;100060.44;5089278;28;20315;-80
2020/12/01 05:52:25;;;;;;;;;;;;;;;3.22;100.00;100052.63;5055769;28;19921;-80
2020/12/01 05:55:21;;;;;;;;;;;;;;;3.14;100.00;100053.56;5056395;28;20363;-79
2020/12/01 05:57:55;;;;;;;;;;;;;;;3.13;100.00;100054.72;5026580;28;19921;-79
2020/12/01 06:00:23;;;;;;;;;;;;;;;3.13;100.00;100060.25;5055491;28;19970;-80
2020/12/01 06:02:50;;;;;;;;;;;;;;;3.09;100.00;100056.59;5056178;28;19951;-80
2020/12/01 06:05:19;;;;;;;;;;;;;;;3.24;100.00;100066.91;5088796;28;19921;-79
2020/12/01 06:07:47;;;;;;;;;;;;;;;3.24;100.00;100056.63;5055014;28;19970;-79
2020/12/01 06:10:36;;;;;;;;;;;;;;;3.28;100.00;100057.56;5071105;28;19966;-80
2020/12/01 06:13:17;;;;;;;;;;;;;;;3.23;100.00;100054.22;5068413;28;20005;-80
2020/12/01 06:15:53;;;;;;;;;;;;;;;3.22;100.00;100060.91;5076297;28;19924;-79
2020/12/01 06:18:25;;;;;;;;;;;;;;;3.20;100.00;100055.72;5076068;28;19927;-79
2020/12/01 06:21:01;;;;;;;;;;;;;;;3.20;100.00;100063.22;5058635;28;19920;-79
2020/12/01 06:23:36;;;;;;;;;;;;;;;3.22;100.00;100063.66;5091811;28;19920;-79
2020/12/01 06:26:21;;;;;;;;;;;;;;;3.27;100.00;100061.44;5075948;28;19928;-80
2020/12/01 06:29:07;;;;;;;;;;;;;;;3.23;100.00;100070.78;5091592;28;20019;-79
2020/12/01 06:31:48;;;;;;;;;;;;;;;3.31;100.00;100056.84;5041727;28;19920;-79
2020/12/01 06:34:34;;;;;;;;;;;;;;;3.30;100.00;100063.50;5058000;28;19966;-79
2020/12/01 06:37:14;;;;;;;;;;;;;;;3.29;100.00;100075.72;5058125;28;19920;-79
2020/12/01 06:39:46;;;;;;;;;;;;;;;3.29;100.00;100075.72;5074500;28;20015;-79
2020/12/01 06:42:12;;;;;;;;;;;;;;;3.25;100.00;100079.53;5091625;28;19920;-79
2020/12/01 06:44:40;;;;;;;;;;;;;;;3.32;100.00;100085.25;5074412;28;20019;-80
2020/12/01 06:47:07;;;;;;;;;;;;;;;3.35;100.00;100095.59;5075593;28;19920;-80
2020/12/01 06:49:35;;;;;;;;;;;;;;;3.26;100.00;100098.53;5091653;28;19964;-80
2020/12/01 06:52:04;;;;;;;;;;;;;;;3.29;100.00;100108.06;5057755;28;20019;-79
2020/12/01 06:54:30;;;;;;;;;;;;;;;3.36;100.00;100111.03;5040828;28;19924;-79
2020/12/01 06:56:59;;;;;;;;;;;;;;;3.40;100.00;100111.94;5091366;28;20318;-79
2020/12/01 06:59:27;;;;;;;;;;;;;;;3.33;100.00;100106.22;5057661;28;19920;-79
2020/12/01 07:02:03;;;;;;;;;;;;;;;3.45;100.00;100120.00;5075328;28;19921;-79
2020/12/01 07:04:30;;;;;;;;;;;;;;;3.49;100.00;100107.06;5057359;28;19927;-79
2020/12/01 07:06:58;;;;;;;;;;;;;;;3.49;100.00;100112.59;5090571;28;19959;-79
2020/12/01 07:09:44;;;;;;;;;;;;;;;3.47;100.00;100110.19;5040291;28;19924;-77
2020/12/01 07:12:15;;;;;;;;;;;;;;;3.46;100.00;100118.81;5056964;28;20402;-77
2020/12/01 07:14:46;;;;;;;;;;;;;;;3.47;100.00;100117.66;5089631;28;19921;-77
2020/12/01 07:17:37;;;;;;;;;;;;;;;3.52;100.00;100125.72;5040640;28;19920;-81
2020/12/01 07:20:07;;;;;;;;;;;;;;;3.57;100.00;100119.94;5067057;28;19932;-78
2020/12/01 07:22:43;;;;;;;;;;;;;;;3.56;100.00;100134.91;5076233;28;20018;-78
2020/12/01 07:25:17;;;;;;;;;;;;;;;3.52;100.00;100134.00;5057962;28;19960;-78
2020/12/01 07:27:51;;;;;;;;;;;;;;;3.50;100.00;100131.59;5074393;28;19924;-78
2020/12/01 07:30:22;;;;;;;;;;;;;;;3.43;100.00;100136.09;5074262;28;19920;-78
2020/12/01 07:32:59;;;;;;;;;;;;;;;3.43;100.00;100141.63;5074230;28;19920;-78
2020/12/01 07:35:32;;;;;;;;;;;;;;;3.35;100.00;100148.09;5056525;28;19920;-78
2020/12/01 07:38:06;;;;;;;;;;;;;;;3.30;100.00;100134.56;5074112;28;20378;-78
2020/12/01 07:40:41;;;;;;;;;;;;;;;3.26;100.00;100147.44;5056481;28;19920;-78
2020/12/01 07:43:11;;;;;;;;;;;;;;;3.36;100.00;100141.44;5056276;28;19920;-78
2020/12/01 07:45:37;;;;;;;;;;;;;;;3.42;100.00;100142.81;5074168;28;20011;-78
2020/12/01 07:48:04;;;;;;;;;;;;;;;3.49;100.00;100145.75;5074135;28;19982;-78
2020/12/01 07:50:31;;;;;;;;;;;;;;;3.46;100.00;100147.28;5089553;28;19924;-78
2020/12/01 07:53:00;;;;;;;;;;;;;;;3.45;100.00;100150.38;5056129;28;19963;-78
2020/12/01 07:55:34;;;;;;;;;;;;;;;3.62;100.00;100155.59;5039641;28;19951;-78
2020/12/01 07:58:02;;;;;;;;;;;;;;;3.65;100.00;100160.44;5074101;28;19920;-77
2020/12/01 08:00:30;;;;;;;;;;;;;;;3.61;100.00;100167.81;5074026;28;19956;-84
2020/12/01 08:03:08;;;;;;;;;;;;;;;3.54;100.00;100175.91;5056802;28;19960;-82
2020/12/01 08:05:35;;;;;;;;;;;;;;;3.44;100.00;100168.09;5055811;28;19920;-82
2020/12/01 08:08:02;;;;;;;;;;;;;;;3.37;100.00;100174.25;5074183;28;19920;-82
2020/12/01 08:10:29;;;;;;;;;;;;;;;3.41;100.00;100177.09;5086039;28;20356;-80
2020/12/01 08:13:00;;;;;;;;;;;;;;;3.34;100.00;100180.47;5036933;28;19925;-81
2020/12/01 08:15:27;;;;;;;;;;;;;;;3.19;100.00;100185.91;5053440;28;19921;-80
2020/12/01 08:17:54;;;;;;;;;;;;;;;3.08;100.00;100184.75;5054160;28;19964;-81
2020/12/01 08:20:24;;;;;;;;;;;;;;;3.07;100.00;100188.69;5036520;28;19920;-81
2020/12/01 08:22:57;;;;;;;;;;;;;;;3.10;100.00;100199.03;5052938;28;19920;-81
2020/12/01 08:25:29;;;;;;;;;;;;;;;3.15;100.00;100198.81;5056764;28;20007;-83
2020/12/01 08:28:02;;;;;;;;;;;;;;;3.04;100.00;100186.59;5057482;28;19927;-82
2020/12/01 08:30:38;;;;;;;;;;;;;;;3.00;100.00;100194.78;5056729;28;19928;-82
2020/12/01 08:33:13;;;;;;;;;;;;;;;2.88;100.00;100197.53;5058130;28;19920;-83
2020/12/01 08:35:43;;;;;;;;;;;;;;;2.77;100.00;100190.84;5056458;28;19920;-83
2020/12/01 08:38:25;;;;;;;;;;;;;;;2.66;100.00;100199.94;5023749;28;19960;-83
2020/12/01 08:41:06;;;;;;;;;;;;;;;2.69;100.00;100200.06;5040048;28;19924;-80
2020/12/01 08:43:37;;;;;;;;;;;;;;;2.83;100.00;100202.50;5058374;28;19920;-81
2020/12/01 08:46:06;;;;;;;;;;;;;;;3.08;100.00;100210.41;5040267;28;19928;-80
2020/12/01 08:48:40;;;;;;;;;;;;;;;3.47;100.00;100209.66;5058198;28;19999;-81
2020/12/01 08:51:13;;;;;;;;;;;;;;;3.62;100.00;100211.69;5039260;28;19927;-80
2020/12/01 08:53:47;;;;;;;;;;;;;;;3.53;100.00;100204.69;5060399;28;20003;-79
2020/12/01 08:56:20;;;;;;;;;;;;;;;3.69;100.00;100206.41;5066636;28;19924;-80
2020/12/01 08:58:49;;;;;;;;;;;;;;;3.62;100.00;100202.59;5074072;28;19920;-80
2020/12/01 09:01:38;;;;;;;;;;;;;;;3.61;100.00;100201.00;5058006;28;19978;-79
2020/12/01 09:04:05;;;;;;;;;;;;;;;3.62;100.00;100188.78;5072282;28;19920;-79
2020/12/01 09:06:34;;;;;;;;;;;;;;;3.54;100.00;100195.25;5071950;28;19920;-79
2020/12/01 09:09:08;;;;;;;;;;;;;;;3.51;100.00;100193.19;5071084;28;20497;-79
2020/12/01 09:17:21;;;;;;;;;;;;;;;3.48;100.00;100202.97;5093668;28;19920;-79
2020/12/01 09:20:13;;;;;;;;;;;;;;;3.44;100.00;100199.31;5092950;28;19940;-80
2020/12/01 09:22:39;;;;;;;;;;;;;;;3.60;100.00;100196.63;5092805;28;19920;-81
2020/12/01 09:25:06;;;;;;;;;;;;;;;3.71;100.00;100186.69;5094359;28;19927;-79
2020/12/01 09:27:33;;;;;;;;;;;;;;;3.98;100.00;100201.66;5126833;27;20617;-79
2020/12/01 09:30:00;;;;;;;;;;;;;;;3.97;100.00;100192.56;5075641;28;19924;-80
2020/12/01 09:32:28;;;;;;;;;;;;;;;4.12;100.00;100191.78;5093599;28;19924;-79
2020/12/01 09:34:54;;;;;;;;;;;;;;;4.08;100.00;100188.13;5092559;28;19924;-80
2020/12/01 09:37:20;;;;;;;;;;;;;;;4.18;100.00;100186.81;5093316;28;19927;-80
2020/12/01 09:39:47;;;;;;;;;;;;;;;4.21;100.00;100195.19;5092464;28;19932;-80
2020/12/01 09:50:14;;;;;;;;;;;;;;;4.36;100.00;100197.19;5084546;28;19920;-78
2020/12/01 09:53:27;;;;;;;;;;;;;;;4.36;100.00;100194.41;5092329;28;19927;-80
2020/12/01 09:55:45;;;;;;;;;;;;;;;4.44;100.00;100200.97;5085459;28;20579;-83
2020/12/01 10:25:29;;;;;;;;;;;;;;;4.87;100.00;100184.25;5057021;28;19923;-76
2020/12/01 10:35:42;;;;;;;;;;;;;;;4.95;100.00;100172.97;5077555;28;20428;-77
2020/12/01 10:38:09;;;;;;;;;;;;;;;5.01;100.00;100174.31;5077616;28;19923;-78
2020/12/01 10:40:35;;;;;;;;;;;;;;;5.10;100.00;100165.81;5111596;28;19920;-78
2020/12/01 10:43:02;;;;;;;;;;;;;;;5.07;100.00;100156.25;5077657;28;19920;-79
2020/12/01 10:45:29;;;;;;;;;;;;;;;5.12;100.00;100167.06;5095531;28;19958;-77
2020/12/01 10:47:56;;;;;;;;;;;;;;;5.10;100.00;100163.84;5076821;28;19920;-77
2020/12/01 10:50:25;;;;;;;;;;;;;;;5.10;100.00;100171.38;5077163;28;19920;-78
2020/12/01 10:52:51;;;;;;;;;;;;;;;5.03;100.00;100158.13;5095625;28;19985;-77
2020/12/01 10:55:23;;;;;;;;;;;;;;;5.16;100.00;100162.41;5095403;28;19927;-76
2020/12/01 10:57:50;;;;;;;;;;;;;;;5.05;100.00;100161.34;5094977;28;19931;-76
2020/12/01 11:00:16;;;;;;;;;;;;;;;5.15;100.00;100158.03;5094936;28;19920;-76
2020/12/01 11:02:43;;;;;;;;;;;;;;;5.23;100.00;100156.22;5095110;28;19920;-77
2020/12/01 11:05:11;;;;;;;;;;;;;;;5.26;100.00;100150.75;5077051;28;19928;-77
2020/12/01 11:07:38;;;;;;;;;;;;;;;5.34;100.00;100149.75;5094816;28;19927;-77
2020/12/01 11:10:05;;;;;;;;;;;;;;;5.46;100.00;100146.84;5076707;28;19924;-77
2020/12/01 11:12:31;;;;;;;;;;;;;;;5.59;100.00;100139.19;5094781;28;19943;-77
2020/12/01 11:14:58;;;;;;;;;;;;;;;5.60;100.00;100124.16;5094872;28;19920;-78
2020/12/01 11:17:24;;;;;;;;;;;;;;;5.70;100.00;100133.84;5094997;28;19948;-77
2020/12/01 11:19:51;;;;;;;;;;;;;;;5.77;100.00;100145.09;5059988;28;19920;-76
2020/12/01 11:22:17;;;;;;;;;;;;;;;5.79;100.00;100139.97;5076674;28;19927;-76
2020/12/01 11:24:43;;;;;;;;;;;;;;;5.79;100.00;100131.66;5094461;28;19965;-76
2020/12/01 11:27:10;;;;;;;;;;;;;;;5.86;100.00;100134.63;5094715;28;19927;-77
2020/12/01 11:29:36;;;;;;;;;;;;;;;5.78;100.00;100125.31;5094460;28;20325;-76
2020/12/01 11:32:03;;;;;;;;;;;;;;;5.80;100.00;100122.97;5094565;28;20495;-77
2020/12/01 11:34:30;;;;;;;;;;;;;;;5.83;100.00;100122.25;5094151;28;20010;-78
2020/12/01 11:36:56;;;;;;;;;;;;;;;5.93;100.00;100120.88;5094463;28;20382;-78
2020/12/01 11:39:23;;;;;;;;;;;;;;;6.02;100.00;100119.47;5093131;28;19919;-77
2020/12/01 11:41:49;;;;;;;;;;;;;;;6.12;100.00;100121.63;5093997;28;19926;-77
2020/12/01 11:44:16;;;;;;;;;;;;;;;6.10;100.00;100114.88;5076083;28;19920;-77
2020/12/01 11:46:45;;;;;;;;;;;;;;;6.14;100.00;100118.50;5093885;28;19931;-76
2020/12/01 11:49:12;;;;;;;;;;;;;;;6.07;100.00;100115.59;5093819;28;19920;-76
2020/12/01 11:51:39;;;;;;;;;;;;;;;6.16;100.00;100116.16;5093645;28;19920;-76
2020/12/01 11:54:07;;;;;;;;;;;;;;;6.31;100.00;100116.06;5093686;28;20386;-77
2020/12/01 11:56:33;;;;;;;;;;;;;;;6.20;100.00;100122.56;5093623;28;19920;-78
2020/12/01 11:59:00;;;;;;;;;;;;;;;6.20;100.00;100115.06;5075226;28;20040;-77
2020/12/01 12:01:27;;;;;;;;;;;;;;;6.21;100.00;100111.09;5094356;28;20263;-78
2020/12/01 12:03:53;;;;;;;;;;;;;;;6.30;100.00;100113.66;5076478;28;20363;-77
2020/12/01 12:06:20;;;;;;;;;;;;;;;6.07;100.00;100102.53;5094509;28;20012;-77
2020/12/01 12:08:47;;;;;;;;;;;;;;;6.14;100.00;100099.06;5094352;28;19959;-78
2020/12/01 12:11:15;;;;;;;;;;;;;;;6.10;100.00;100098.22;5076008;28;20579;-80
2020/12/01 12:13:46;;;;;;;;;;;;;;;6.18;100.00;100097.19;5093812;28;19924;-80
2020/12/01 12:16:14;;;;;;;;;;;;;;;6.18;100.00;100100.72;5093094;28;19963;-77
2020/12/01 12:18:41;;;;;;;;;;;;;;;6.17;100.00;100090.00;5076429;28;19924;-80
2020/12/01 12:21:07;;;;;;;;;;;;;;;6.20;100.00;100100.38;5075875;28;20368;-79
2020/12/01 12:23:34;;;;;;;;;;;;;;;6.08;100.00;100095.81;5093021;28;19943;-79
2020/12/01 12:26:00;;;;;;;;;;;;;;;6.03;100.00;100092.53;5108563;28;19931;-79
2020/12/01 12:28:27;;;;;;;;;;;;;;;5.99;100.00;100092.47;5074893;28;20002;-79
2020/12/01 12:30:53;;;;;;;;;;;;;;;5.98;100.00;100076.19;5074856;28;19931;-80
2020/12/01 12:33:21;;;;;;;;;;;;;;;6.04;100.00;100083.03;5075202;28;19924;-79
2020/12/01 12:35:51;;;;;;;;;;;;;;;6.10;100.00;100070.47;5093055;28;19930;-80
2020/12/01 12:38:18;;;;;;;;;;;;;;;6.19;100.00;100068.25;5075030;28;19930;-80
2020/12/01 12:40:47;;;;;;;;;;;;;;;6.13;100.00;100062.22;5092740;28;19928;-79
2020/12/01 12:43:21;;;;;;;;;;;;;;;6.10;100.00;100067.69;5074714;28;19925;-79
2020/12/01 12:45:47;;;;;;;;;;;;;;;5.96;100.00;100070.19;5058187;28;19925;-79
2020/12/01 12:48:14;;;;;;;;;;;;;;;5.99;100.00;100061.13;5074966;28;20433;-80
2020/12/01 12:50:41;;;;;;;;;;;;;;;6.10;100.00;100064.91;5092902;28;19932;-80
2020/12/01 12:53:07;;;;;;;;;;;;;;;6.24;100.00;100067.94;5074776;28;19924;-80
2020/12/01 12:55:34;;;;;;;;;;;;;;;6.34;100.00;100070.09;5092509;28;19931;-80
2020/12/01 12:58:00;;;;;;;;;;;;;;;6.26;100.00;100066.38;5092781;28;20376;-79
2020/12/01 13:00:28;;;;;;;;;;;;;;;6.25;100.00;100055.66;5074786;28;20102;-79
2020/12/01 13:02:55;;;;;;;;;;;;;;;6.24;100.00;100059.63;5074857;28;20001;-79
2020/12/01 13:05:22;;;;;;;;;;;;;;;6.31;100.00;100059.72;5074888;28;20094;-80
2020/12/01 13:07:52;;;;;;;;;;;;;;;6.23;100.00;100055.22;5074721;28;20018;-79
2020/12/01 13:10:18;;;;;;;;;;;;;;;6.07;100.00;100046.22;5074229;28;19969;-80
2020/12/01 13:12:45;;;;;;;;;;;;;;;6.17;100.00;100053.94;5060884;28;19927;-79
2020/12/01 13:15:12;;;;;;;;;;;;;;;6.03;100.00;100056.47;5078561;28;19924;-79
2020/12/01 13:17:41;;;;;;;;;;;;;;;5.96;100.00;100048.81;5096333;28;19924;-79
2020/12/01 13:20:12;;;;;;;;;;;;;;;5.97;100.00;100052.41;5096420;28;19960;-79
2020/12/01 13:22:39;;;;;;;;;;;;;;;5.98;100.00;100059.53;5096111;28;19931;-79
2020/12/01 13:25:11;;;;;;;;;;;;;;;5.99;100.00;100050.03;5077992;28;19931;-80
2020/12/01 13:27:37;;;;;;;;;;;;;;;6.01;100.00;100050.50;5092491;28;19971;-79
2020/12/01 13:30:05;;;;;;;;;;;;;;;5.98;100.00;100045.69;5093848;28;19924;-80
2020/12/01 13:32:32;;;;;;;;;;;;;;;6.10;100.00;100049.06;5095805;28;19955;-80
2020/12/01 13:34:59;;;;;;;;;;;;;;;6.14;100.00;100046.34;5094931;28;19924;-79
2020/12/01 13:37:26;;;;;;;;;;;;;;;6.01;100.00;100045.75;5095850;28;19971;-79
2020/12/01 13:39:52;;;;;;;;;;;;;;;5.91;100.00;100034.47;5077969;28;19931;-80